createdAt,value
2023-01-21T00:00:38.128Z,11.42
2023-01-21T00:03:08.196Z,11.46
2023-01-21T00:05:38.042Z,11.36
2023-01-21T00:08:07.809Z,11.22
2023-01-21T00:10:37.322Z,11.38
2023-01-21T00:13:07.026Z,11.35
2023-01-21T00:15:38.139Z,11.33
2023-01-21T00:18:08.110Z,11.23
2023-01-21T00:20:37.695Z,11.29
2023-01-21T00:23:07.707Z,11.30
2023-01-21T00:25:37.221Z,11.29
2023-01-21T00:28:06.997Z,11.29
2023-01-21T00:30:37.868Z,11.27
2023-01-21T00:33:07.433Z,11.26
2023-01-21T00:35:37.272Z,11.28
2023-01-21T00:38:06.602Z,11.23
2023-01-21T00:40:36.716Z,11.21
2023-01-21T00:43:06.239Z,11.02
2023-01-21T00:45:35.641Z,10.96
2023-01-21T00:48:05.450Z,10.82
2023-01-21T00:50:35.104Z,10.92
2023-01-21T00:53:04.661Z,10.99
2023-01-21T00:55:34.054Z,11.01
2023-01-21T00:58:03.849Z,10.96
2023-01-21T01:00:33.875Z,10.72
2023-01-21T01:03:03.621Z,10.78
2023-01-21T01:05:34.721Z,10.94
2023-01-21T01:08:05.376Z,10.92
2023-01-21T01:10:40.217Z,11.00
2023-01-21T01:13:10.396Z,10.80
2023-01-21T01:15:41.341Z,10.71
2023-01-21T01:18:11.805Z,10.80
2023-01-21T01:20:48.800Z,10.93
2023-01-21T01:23:19.184Z,11.00
2023-01-21T01:26:09.328Z,11.19
2023-01-21T01:28:39.915Z,11.11
2023-01-21T01:31:13.910Z,11.21
2023-01-21T01:33:45.236Z,11.24
2023-01-21T01:36:21.132Z,11.34
2023-01-21T01:38:51.961Z,11.35
2023-01-21T01:41:30.244Z,11.49
2023-01-21T01:44:27.421Z,11.55
2023-01-21T01:47:01.616Z,11.55
2023-01-21T01:49:31.948Z,11.44
2023-01-21T01:52:06.543Z,11.53
2023-01-21T01:54:44.126Z,11.63
2023-01-21T01:57:17.660Z,11.54
2023-01-21T01:59:48.984Z,11.51
2023-01-21T02:02:21.932Z,11.45
2023-01-21T02:04:58.721Z,11.52
2023-01-21T02:07:34.571Z,11.50
2023-01-21T02:10:05.071Z,11.34
2023-01-21T02:12:38.203Z,11.43
2023-01-21T02:15:09.476Z,11.43
2023-01-21T02:17:58.798Z,11.63
2023-01-21T02:21:13.016Z,11.52
2023-01-21T02:24:10.876Z,11.58
2023-01-21T02:26:59.834Z,11.44
2023-01-21T02:29:56.940Z,11.69
2023-01-21T02:33:11.519Z,11.72
2023-01-21T02:35:54.022Z,11.71
2023-01-21T02:38:31.015Z,11.66
2023-01-21T02:41:09.027Z,11.69
2023-01-21T02:44:06.095Z,11.85
2023-01-21T02:47:02.662Z,11.78
2023-01-21T02:50:29.508Z,11.84
2023-01-21T02:53:05.495Z,11.75
2023-01-21T02:55:38.885Z,11.69
2023-01-21T02:58:16.476Z,11.65
2023-01-21T03:01:07.612Z,11.81
2023-01-21T03:03:50.476Z,12.12
2023-01-21T03:06:31.387Z,12.10
2023-01-21T03:09:22.712Z,12.26
2023-01-21T03:12:07.435Z,12.27
2023-01-21T03:15:10.897Z,12.26
2023-01-21T03:17:56.091Z,12.29
2023-01-21T03:20:35.497Z,12.21
2023-01-21T03:23:12.013Z,12.20
2023-01-21T03:25:43.631Z,12.22
2023-01-21T03:28:19.132Z,12.43
2023-01-21T03:30:57.806Z,12.65
2023-01-21T03:33:31.687Z,12.69
2023-01-21T03:36:07.894Z,12.77
2023-01-21T03:38:46.200Z,12.74
2023-01-21T03:41:22.800Z,12.92
2023-01-21T03:43:54.166Z,12.85
2023-01-21T03:46:45.835Z,13.10
2023-01-21T03:49:47.355Z,13.15
2023-01-21T03:52:20.284Z,13.16
2023-01-21T03:54:51.265Z,13.17
2023-01-21T03:57:21.487Z,12.94
2023-01-21T03:59:51.781Z,13.15
2023-01-21T04:02:22.329Z,13.20
2023-01-21T04:04:54.048Z,13.09
2023-01-21T04:07:23.677Z,13.08
2023-01-21T04:09:53.279Z,13.15
2023-01-21T04:12:23.008Z,13.20
2023-01-21T04:14:52.506Z,13.28
2023-01-21T04:17:22.052Z,13.31
2023-01-21T04:19:52.245Z,13.31
2023-01-21T04:22:21.785Z,13.40
2023-01-21T04:24:51.253Z,13.48
2023-01-21T04:27:20.883Z,13.57
2023-01-21T04:29:50.336Z,13.56
2023-01-21T04:32:20.022Z,13.64
2023-01-21T04:34:49.529Z,13.66
2023-01-21T04:37:19.268Z,13.88
2023-01-21T04:39:48.809Z,13.92
2023-01-21T04:42:18.285Z,14.10
2023-01-21T04:44:48.611Z,14.13
2023-01-21T04:47:18.419Z,14.16
2023-01-21T04:49:49.871Z,14.35
2023-01-21T04:52:19.833Z,14.35
2023-01-21T04:54:49.150Z,14.51
2023-01-21T04:57:18.758Z,14.60
2023-01-21T04:59:48.487Z,14.70
2023-01-21T05:02:18.177Z,14.81
2023-01-21T05:04:47.900Z,14.99
2023-01-21T05:07:18.290Z,15.04
2023-01-21T05:09:49.352Z,15.17
2023-01-21T05:12:18.835Z,15.23
2023-01-21T05:14:48.415Z,15.26
2023-01-21T05:17:17.867Z,15.39
2023-01-21T05:19:47.667Z,15.37
2023-01-21T05:22:17.251Z,15.50
2023-01-21T05:24:49.823Z,15.64
2023-01-21T05:27:21.182Z,15.82
2023-01-21T05:29:50.859Z,15.86
2023-01-21T05:32:21.300Z,15.83
2023-01-21T05:34:50.983Z,15.87
2023-01-21T05:37:20.748Z,16.06
2023-01-21T05:39:50.328Z,15.96
2023-01-21T05:42:19.808Z,16.06
2023-01-21T05:44:49.413Z,16.15
2023-01-21T05:47:19.171Z,16.21
2023-01-21T05:49:48.940Z,16.22
2023-01-21T05:52:18.545Z,16.22
2023-01-21T05:55:01.057Z,16.37
2023-01-21T05:57:32.148Z,16.51
2023-01-21T06:00:01.812Z,16.42
2023-01-21T06:02:34.056Z,16.56
2023-01-21T06:05:03.692Z,16.60
2023-01-21T06:07:33.102Z,16.75
2023-01-21T06:10:02.700Z,16.78
2023-01-21T06:12:32.007Z,17.01
2023-01-21T06:15:01.775Z,17.02
2023-01-21T06:17:31.193Z,16.92
2023-01-21T06:20:00.710Z,16.87
2023-01-21T06:22:30.295Z,17.05
2023-01-21T06:25:00.075Z,17.08
2023-01-21T06:27:30.164Z,17.07
2023-01-21T06:29:59.636Z,17.12
2023-01-21T06:32:29.021Z,17.07
2023-01-21T06:34:58.869Z,17.19
2023-01-21T06:37:29.011Z,17.04
2023-01-21T06:39:58.913Z,17.18
2023-01-21T06:42:30.761Z,16.83
2023-01-21T06:45:00.489Z,17.00
2023-01-21T06:47:29.884Z,17.27
2023-01-21T06:49:59.494Z,17.25
2023-01-21T06:52:29.107Z,17.29
2023-01-21T06:54:58.670Z,17.27
2023-01-21T06:57:27.979Z,17.30
2023-01-21T06:59:57.688Z,17.36
2023-01-21T07:02:27.224Z,17.43
2023-01-21T07:04:59.001Z,17.44
2023-01-21T07:07:29.333Z,17.51
2023-01-21T07:09:59.119Z,17.48
2023-01-21T07:12:28.386Z,17.60
2023-01-21T07:14:57.928Z,17.60
2023-01-21T07:17:27.432Z,17.65
2023-01-21T07:19:57.049Z,17.67
2023-01-21T07:22:27.077Z,17.70
2023-01-21T07:24:56.590Z,17.54
2023-01-21T07:27:26.089Z,17.78
2023-01-21T07:29:55.794Z,17.62
2023-01-21T07:32:25.068Z,17.96
2023-01-21T07:34:54.987Z,18.06
2023-01-21T07:37:27.159Z,18.15
2023-01-21T07:39:57.555Z,17.99
2023-01-21T07:42:27.208Z,18.18
2023-01-21T07:44:58.153Z,18.08
2023-01-21T07:47:27.805Z,17.96
2023-01-21T07:49:57.678Z,18.04
2023-01-21T07:52:27.147Z,17.73
2023-01-21T07:54:56.776Z,18.10
2023-01-21T07:57:26.458Z,17.87
2023-01-21T07:59:56.101Z,17.91
2023-01-21T08:02:26.651Z,18.22
2023-01-21T08:04:56.402Z,18.41
2023-01-21T08:07:25.766Z,18.26
2023-01-21T08:09:55.544Z,18.35
2023-01-21T08:12:27.170Z,18.32
2023-01-21T08:14:57.166Z,18.13
2023-01-21T08:17:26.827Z,18.38
2023-01-21T08:19:56.320Z,18.45
2023-01-21T08:22:27.103Z,18.19
2023-01-21T08:24:56.825Z,18.24
2023-01-21T08:27:26.200Z,18.25
2023-01-21T08:29:55.855Z,18.28
2023-01-21T08:32:25.987Z,18.40
2023-01-21T08:34:55.410Z,18.55
2023-01-21T08:37:24.756Z,18.33
2023-01-21T08:39:54.521Z,18.41
2023-01-21T08:42:23.961Z,18.56
2023-01-21T08:44:55.285Z,18.65
2023-01-21T08:47:24.881Z,18.55
2023-01-21T08:49:54.343Z,18.63
2023-01-21T08:52:24.166Z,18.75
2023-01-21T08:54:53.839Z,18.57
2023-01-21T08:57:23.375Z,18.59
2023-01-21T08:59:53.071Z,18.62
2023-01-21T09:02:22.716Z,18.67
2023-01-21T09:04:52.363Z,18.56
2023-01-21T09:07:22.093Z,18.36
2023-01-21T09:09:51.564Z,18.38
2023-01-21T09:12:21.137Z,18.54
2023-01-21T09:14:50.768Z,18.56
2023-01-21T09:17:20.314Z,18.70
2023-01-21T09:19:50.440Z,18.65
2023-01-21T09:22:20.207Z,18.80
2023-01-21T09:24:49.601Z,18.80
2023-01-21T09:27:19.286Z,18.65
2023-01-21T09:29:48.627Z,18.63
2023-01-21T09:32:18.005Z,18.83
2023-01-21T09:34:47.685Z,18.91
2023-01-21T09:37:17.064Z,18.68
2023-01-21T09:39:49.283Z,18.73
2023-01-21T09:42:23.386Z,18.75
2023-01-21T09:44:55.989Z,18.62
2023-01-21T09:47:34.932Z,18.75
2023-01-21T09:50:09.917Z,18.72
2023-01-21T09:52:44.144Z,18.55
2023-01-21T09:55:25.642Z,18.79
2023-01-21T09:58:35.432Z,18.90
2023-01-21T10:01:20.683Z,18.95
2023-01-21T10:03:55.369Z,18.89
2023-01-21T10:07:15.408Z,18.72
2023-01-21T10:10:05.685Z,18.91
2023-01-21T10:12:55.683Z,18.79
2023-01-21T10:15:51.661Z,18.72
2023-01-21T10:18:30.710Z,18.89
2023-01-21T10:21:19.795Z,18.81
2023-01-21T10:24:02.502Z,18.65
2023-01-21T10:26:35.614Z,18.71
2023-01-21T10:29:06.432Z,18.46
2023-01-21T10:31:44.275Z,18.84
2023-01-21T10:34:16.367Z,18.43
2023-01-21T10:36:52.666Z,18.59
2023-01-21T10:39:28.490Z,18.67
2023-01-21T10:42:06.722Z,18.83
2023-01-21T10:44:48.509Z,18.76
2023-01-21T10:47:44.244Z,18.72
2023-01-21T10:50:19.285Z,18.66
2023-01-21T10:53:15.232Z,18.81
2023-01-21T10:56:02.039Z,18.39
2023-01-21T10:58:35.453Z,18.32
2023-01-21T11:01:09.835Z,18.34
2023-01-21T11:03:43.999Z,18.44
2023-01-21T11:06:16.799Z,18.52
2023-01-21T11:08:47.276Z,18.59
2023-01-21T11:11:27.753Z,18.39
2023-01-21T11:13:58.284Z,18.32
2023-01-21T11:16:44.385Z,18.52
2023-01-21T11:19:17.135Z,18.42
2023-01-21T11:22:07.248Z,18.59
2023-01-21T11:24:52.481Z,18.59
2023-01-21T11:27:40.620Z,18.54
2023-01-21T11:30:55.217Z,18.46
2023-01-21T11:33:28.583Z,18.34
2023-01-21T11:35:59.454Z,18.21
2023-01-21T11:38:31.859Z,18.31
2023-01-21T11:41:08.848Z,18.12
2023-01-21T11:43:47.652Z,18.17
2023-01-21T11:46:36.815Z,18.32
2023-01-21T11:49:09.391Z,18.12
2023-01-21T11:51:42.349Z,18.25
2023-01-21T11:54:26.011Z,18.10
2023-01-21T11:57:01.842Z,17.95
2023-01-21T11:59:45.423Z,17.99
2023-01-21T12:02:41.428Z,17.83
2023-01-21T12:05:25.141Z,17.78
2023-01-21T12:07:54.763Z,17.83
2023-01-21T12:10:35.052Z,17.80
2023-01-21T12:13:37.753Z,17.71
2023-01-21T12:16:25.446Z,17.66
2023-01-21T12:19:22.629Z,17.56
2023-01-21T12:22:30.941Z,17.67
2023-01-21T12:25:39.372Z,17.78
2023-01-21T12:28:52.349Z,17.78
2023-01-21T12:31:30.380Z,17.43
2023-01-21T12:34:14.042Z,17.50
2023-01-21T12:37:08.536Z,17.61
2023-01-21T12:39:39.800Z,17.44
2023-01-21T12:42:21.978Z,17.54
2023-01-21T12:45:16.559Z,17.53
2023-01-21T12:47:58.009Z,17.38
2023-01-21T12:50:49.624Z,17.21
2023-01-21T12:53:43.351Z,17.45
2023-01-21T12:56:35.088Z,17.42
2023-01-21T12:59:18.279Z,17.28
2023-01-21T13:02:19.630Z,17.34
2023-01-21T13:05:05.636Z,17.33
2023-01-21T13:07:53.417Z,17.18
2023-01-21T13:10:33.772Z,17.27
2023-01-21T13:13:24.383Z,17.20
2023-01-21T13:15:59.017Z,17.07
2023-01-21T13:18:37.842Z,17.16
2023-01-21T13:21:19.516Z,17.19
2023-01-21T13:24:16.945Z,17.11
2023-01-21T13:26:55.439Z,16.92
2023-01-21T13:29:53.327Z,16.94
2023-01-21T13:33:00.988Z,16.92
2023-01-21T13:35:36.226Z,16.78
2023-01-21T13:38:22.977Z,16.82
2023-01-21T13:41:33.548Z,16.76
2023-01-21T13:44:14.434Z,16.71
2023-01-21T13:46:47.132Z,16.70
2023-01-21T13:49:40.478Z,16.70
2023-01-21T13:52:13.351Z,16.54
2023-01-21T13:55:01.930Z,16.34
2023-01-21T13:58:20.523Z,16.55
2023-01-21T14:01:04.510Z,16.54
2023-01-21T14:03:48.874Z,16.43
2023-01-21T14:06:30.878Z,16.42
2023-01-21T14:09:13.681Z,16.41
2023-01-21T14:12:09.042Z,16.41
2023-01-21T14:14:57.117Z,16.29
2023-01-21T14:18:04.591Z,16.46
2023-01-21T14:21:05.943Z,16.40
2023-01-21T14:23:44.741Z,16.45
2023-01-21T14:26:32.342Z,16.27
2023-01-21T14:29:20.052Z,16.33
2023-01-21T14:32:14.010Z,16.32
2023-01-21T14:35:14.983Z,16.36
2023-01-21T14:38:25.636Z,16.34
2023-01-21T14:41:10.628Z,16.38
2023-01-21T14:43:41.563Z,16.26
2023-01-21T14:46:35.336Z,16.38
2023-01-21T14:49:10.413Z,16.36
2023-01-21T14:51:49.440Z,16.34
2023-01-21T14:54:29.221Z,16.41
2023-01-21T14:57:17.303Z,16.34
2023-01-21T14:59:48.943Z,16.28
2023-01-21T15:02:37.116Z,16.38
2023-01-21T15:05:22.703Z,16.39
2023-01-21T15:08:20.012Z,16.37
2023-01-21T15:11:09.301Z,16.37
2023-01-21T15:13:41.436Z,16.26
2023-01-21T15:16:34.802Z,16.35
2023-01-21T15:19:10.383Z,16.26
2023-01-21T15:22:20.359Z,16.23
2023-01-21T15:25:04.219Z,16.17
2023-01-21T15:27:34.319Z,16.04
2023-01-21T15:30:07.016Z,16.06
2023-01-21T15:32:39.089Z,16.18
2023-01-21T15:35:47.342Z,16.08
2023-01-21T15:38:18.541Z,15.91
2023-01-21T15:40:56.516Z,15.91
2023-01-21T15:43:58.194Z,15.77
2023-01-21T15:46:43.002Z,15.91
2023-01-21T15:49:37.503Z,15.85
2023-01-21T15:52:49.208Z,15.90
2023-01-21T15:55:47.745Z,15.70
2023-01-21T15:58:42.925Z,15.69
2023-01-21T16:01:35.741Z,15.74
2023-01-21T16:04:31.955Z,15.68
2023-01-21T16:07:20.359Z,15.60
2023-01-21T16:10:34.298Z,15.56
2023-01-21T16:13:51.623Z,15.49
2023-01-21T16:16:46.155Z,15.42
2023-01-21T16:19:29.209Z,15.32
2023-01-21T16:22:03.070Z,15.25
2023-01-21T16:24:39.597Z,15.20
2023-01-21T16:27:19.798Z,15.23
2023-01-21T16:29:49.975Z,15.04
2023-01-21T16:32:21.615Z,15.12
2023-01-21T16:34:52.853Z,14.99
2023-01-21T16:37:27.777Z,15.08
2023-01-21T16:40:12.199Z,15.05
2023-01-21T16:42:43.220Z,14.91
2023-01-21T16:45:23.931Z,15.01
2023-01-21T16:47:59.965Z,14.92
2023-01-21T16:50:32.189Z,14.83
2023-01-21T16:53:09.200Z,14.89
2023-01-21T16:55:49.656Z,14.84
2023-01-21T16:58:33.565Z,14.89
2023-01-21T17:01:17.350Z,14.92
2023-01-21T17:03:51.067Z,14.78
2023-01-21T17:06:26.782Z,14.86
2023-01-21T17:09:06.368Z,14.84
2023-01-21T17:11:38.299Z,14.78
2023-01-21T17:14:12.266Z,14.76
2023-01-21T17:16:43.898Z,14.68
2023-01-21T17:19:44.527Z,14.79
2023-01-21T17:22:20.722Z,14.61
2023-01-21T17:25:27.184Z,14.68
2023-01-21T17:27:58.150Z,14.58
2023-01-21T17:30:32.972Z,14.59
2023-01-21T17:33:05.021Z,14.44
2023-01-21T17:35:35.544Z,14.40
2023-01-21T17:38:07.571Z,14.43
2023-01-21T17:41:02.227Z,14.49
2023-01-21T17:43:34.779Z,14.46
2023-01-21T17:46:05.482Z,14.37
2023-01-21T17:48:46.733Z,14.37
2023-01-21T17:51:25.192Z,14.32
2023-01-21T17:53:57.858Z,14.26
2023-01-21T17:56:51.448Z,14.24
2023-01-21T17:59:38.902Z,14.24
2023-01-21T18:02:11.789Z,14.01
2023-01-21T18:04:43.055Z,14.00
2023-01-21T18:07:28.752Z,14.10
2023-01-21T18:10:04.052Z,14.08
2023-01-21T18:12:33.781Z,13.91
2023-01-21T18:15:03.979Z,13.92
2023-01-21T18:17:35.118Z,13.70
2023-01-21T18:20:05.558Z,13.74
2023-01-21T18:22:37.163Z,13.76
2023-01-21T18:25:08.341Z,13.84
2023-01-21T18:27:38.207Z,13.77
2023-01-21T18:30:20.106Z,13.62
2023-01-21T18:32:51.024Z,13.60
2023-01-21T18:35:28.808Z,13.72
2023-01-21T18:37:59.022Z,13.65
2023-01-21T18:40:29.067Z,13.57
2023-01-21T18:42:59.379Z,13.51
2023-01-21T18:45:30.294Z,13.58
2023-01-21T18:48:00.113Z,13.52
2023-01-21T18:50:31.441Z,13.49
2023-01-21T18:53:01.216Z,13.44
2023-01-21T18:55:31.082Z,13.22
2023-01-21T18:58:00.786Z,13.30
2023-01-21T19:00:32.628Z,13.34
2023-01-21T19:03:03.061Z,13.36
2023-01-21T19:05:37.498Z,13.33
2023-01-21T19:08:15.901Z,13.41
2023-01-21T19:10:45.774Z,13.24
2023-01-21T19:13:18.017Z,13.16
2023-01-21T19:15:50.037Z,13.26
2023-01-21T19:18:19.738Z,13.25
2023-01-21T19:20:49.302Z,13.21
2023-01-21T19:23:19.871Z,13.26
2023-01-21T19:25:58.164Z,13.40
2023-01-21T19:28:27.926Z,13.28
2023-01-21T19:30:59.558Z,13.22
2023-01-21T19:33:29.321Z,13.08
2023-01-21T19:36:06.476Z,13.09
2023-01-21T19:38:36.225Z,12.98
2023-01-21T19:41:06.594Z,12.97
2023-01-21T19:43:37.856Z,13.05
2023-01-21T19:46:13.127Z,13.21
2023-01-21T19:48:43.143Z,13.16
2023-01-21T19:51:12.794Z,13.18
2023-01-21T19:53:42.710Z,13.17
2023-01-21T19:56:18.625Z,13.24
2023-01-21T19:58:49.712Z,13.13
2023-01-21T20:01:19.306Z,13.15
2023-01-21T20:03:59.779Z,13.22
2023-01-21T20:06:35.238Z,13.05
2023-01-21T20:09:06.168Z,12.97
2023-01-21T20:11:36.093Z,12.95
2023-01-21T20:14:05.841Z,12.97
2023-01-21T20:16:35.857Z,13.01
2023-01-21T20:19:07.689Z,13.05
2023-01-21T20:21:54.703Z,13.05
2023-01-21T20:24:31.394Z,12.74
2023-01-21T20:27:01.686Z,12.59
2023-01-21T20:29:31.142Z,12.63
2023-01-21T20:32:00.866Z,12.80
2023-01-21T20:34:32.684Z,12.88
2023-01-21T20:37:02.621Z,12.87
2023-01-21T20:39:32.264Z,12.87
2023-01-21T20:42:01.839Z,12.90
2023-01-21T20:44:31.510Z,12.83
2023-01-21T20:47:02.579Z,12.89
2023-01-21T20:49:32.279Z,12.88
2023-01-21T20:52:01.886Z,12.86
2023-01-21T20:54:31.498Z,12.79
2023-01-21T20:57:01.203Z,12.70
2023-01-21T20:59:30.615Z,12.69
2023-01-21T21:02:00.403Z,12.75
2023-01-21T21:04:31.188Z,12.54
2023-01-21T21:07:00.857Z,12.52
2023-01-21T21:09:30.434Z,12.45
2023-01-21T21:12:02.886Z,12.48
2023-01-21T21:14:32.479Z,12.40
2023-01-21T21:17:01.898Z,12.39
2023-01-21T21:19:31.556Z,12.45
2023-01-21T21:22:01.117Z,12.51
2023-01-21T21:24:31.166Z,12.60
2023-01-21T21:27:01.581Z,12.64
2023-01-21T21:29:31.707Z,12.66
2023-01-21T21:32:03.415Z,12.69
2023-01-21T21:34:33.228Z,12.68
2023-01-21T21:37:03.003Z,12.66
2023-01-21T21:39:34.278Z,12.66
2023-01-21T21:42:22.304Z,12.66
2023-01-21T21:44:51.841Z,12.69
2023-01-21T21:47:39.389Z,12.67
2023-01-21T21:50:09.502Z,12.71
2023-01-21T21:52:39.116Z,12.69
2023-01-21T21:55:11.632Z,12.68
2023-01-21T21:57:42.881Z,12.64
2023-01-21T22:00:13.904Z,12.70
2023-01-21T22:02:43.475Z,12.59
2023-01-21T22:05:13.720Z,12.59
2023-01-21T22:07:43.440Z,12.56
2023-01-21T22:10:13.576Z,12.59
2023-01-21T22:12:43.410Z,12.60
2023-01-21T22:15:13.253Z,12.62
2023-01-21T22:17:42.704Z,12.70
2023-01-21T22:20:13.186Z,12.73
2023-01-21T22:22:42.990Z,12.68
2023-01-21T22:25:12.834Z,12.71
2023-01-21T22:27:42.620Z,12.69
2023-01-21T22:30:13.438Z,12.79
2023-01-21T22:32:43.064Z,12.80
2023-01-21T22:35:12.583Z,12.84
2023-01-21T22:37:42.047Z,12.84
2023-01-21T22:40:12.305Z,12.87
2023-01-21T22:42:41.885Z,12.85
2023-01-21T22:45:11.693Z,13.00
2023-01-21T22:47:41.109Z,13.08
2023-01-21T22:50:11.480Z,13.15
2023-01-21T22:52:42.777Z,13.14
2023-01-21T22:55:12.534Z,13.17
2023-01-21T22:57:42.362Z,13.14
2023-01-21T23:00:16.869Z,13.22
2023-01-21T23:02:46.274Z,13.21
2023-01-21T23:05:15.753Z,13.22
2023-01-21T23:07:45.524Z,13.26
2023-01-21T23:10:14.905Z,13.22
2023-01-21T23:12:44.742Z,13.07
2023-01-21T23:15:14.234Z,12.94
2023-01-21T23:17:43.600Z,13.02
2023-01-21T23:20:13.565Z,12.93
2023-01-21T23:22:43.123Z,12.93
2023-01-21T23:25:15.447Z,13.07
2023-01-21T23:27:45.043Z,13.06
2023-01-21T23:30:15.717Z,13.14
2023-01-21T23:32:45.399Z,13.13
2023-01-21T23:35:15.107Z,12.97
2023-01-21T23:37:44.952Z,13.05
2023-01-21T23:40:14.749Z,13.13
2023-01-21T23:42:44.453Z,13.15
2023-01-21T23:45:13.988Z,13.20
2023-01-21T23:47:43.648Z,13.19
2023-01-21T23:50:15.580Z,13.24
2023-01-21T23:52:45.235Z,13.19
2023-01-21T23:55:15.915Z,13.07
2023-01-21T23:57:45.605Z,13.13
